Aviation Digital Data Service (ADDS)

Output produced by METARs form (0604 UTC 05 July 2015)
found at http://aviationweather.gov/adds/metars/
 
KJFK 050527Z 0506/0612 VRB03KT P6SM SCT050 BKN100 
     FM051300 26006KT P6SM FEW050 
     FM051500 23008KT P6SM FEW060 
     FM051800 18010KT P6SM FEW060 
     FM052100 18012KT P6SM FEW060 
     FM060100 20006KT P6SM SKC 
     FM060600 23004KT 4SM BR FEW010